Time;durP1;ratioP1;P1;durP2;ratioP2;P2;SDS_P1;SDS_P2;PMS_P1;PMS_P2;Temp;Humidity;BMP_temperature;BMP_pressure;BME280_temperature;BME280_humidity;BME280_pressure;Samples;Min_cycle;Max_cycle;Signal;HPM_P1;HPM_P2
2023/06/12 17:36:39;;;;;;;34.67;6.55;;;;;;;;;;5015133;27;20409;-57
2023/06/12 17:39:05;;;;;;;31.77;6.22;;;;;;;;;;5010709;28;20041;-57
2023/06/12 17:41:30;;;;;;;37.93;6.87;;;;;;;;;;5017621;28;20030;-57
2023/06/12 17:43:55;;;;;;;33.47;6.35;;;;;;;;;;5030768;28;20032;-56
2023/06/12 17:46:21;;;;;;;52.90;8.00;;;;;;;;;;5027567;28;20403;-57
2023/06/12 17:48:46;;;;;;;38.07;6.53;;;;;;;;;;5029528;28;20475;-56
2023/06/12 17:51:11;;;;;;;30.98;5.85;;;;;;;;;;5027192;28;20268;-58
2023/06/12 17:53:39;;;;;;;35.33;6.55;;;;;;;;;;5028617;28;20017;-59
2023/06/12 17:56:04;;;;;;;38.40;6.47;;;;;;;;;;5026734;28;20036;-57
2023/06/12 17:58:29;;;;;;;32.58;6.28;;;;;;;;;;5027285;28;20339;-58
2023/06/12 18:00:55;;;;;;;39.88;6.72;;;;;;;;;;5028418;28;20033;-55
2023/06/12 18:03:20;;;;;;;51.97;8.10;;;;;;;;;;5027289;28;20449;-56
2023/06/12 18:05:45;;;;;;;32.57;5.80;;;;;;;;;;5029093;28;20288;-57
2023/06/12 18:08:11;;;;;;;32.13;6.03;;;;;;;;;;5028230;28;20256;-54
2023/06/12 18:10:36;;;;;;;30.42;5.90;;;;;;;;;;5028132;28;20372;-55
2023/06/12 18:13:01;;;;;;;34.07;6.50;;;;;;;;;;5028983;28;20403;-54
2023/06/12 18:15:27;;;;;;;52.33;7.97;;;;;;;;;;5028251;28;20291;-58
2023/06/12 18:17:52;;;;;;;36.97;6.35;;;;;;;;;;5029504;28;20784;-56
2023/06/12 18:20:18;;;;;;;51.42;7.53;;;;;;;;;;5028348;28;20104;-54
2023/06/12 18:22:43;;;;;;;39.17;6.43;;;;;;;;;;5028179;28;20449;-57
2023/06/12 18:25:09;;;;;;;27.60;6.05;;;;;;;;;;5028841;28;20025;-57
2023/06/12 18:27:34;;;;;;;35.35;6.38;;;;;;;;;;5027132;28;20032;-55
2023/06/12 18:29:59;;;;;;;32.83;5.80;;;;;;;;;;5028245;28;20468;-55
2023/06/12 18:32:24;;;;;;;57.03;7.87;;;;;;;;;;5025248;28;20284;-57
2023/06/12 18:34:50;;;;;;;36.22;6.22;;;;;;;;;;5027766;28;20867;-54
2023/06/12 18:37:15;;;;;;;37.80;6.37;;;;;;;;;;5025251;28;20538;-55
2023/06/12 18:39:41;;;;;;;32.72;5.78;;;;;;;;;;5027202;28;20299;-56
2023/06/12 18:42:07;;;;;;;32.35;6.25;;;;;;;;;;5029302;28;20430;-55
2023/06/12 18:44:32;;;;;;;22.27;5.25;;;;;;;;;;5026582;28;20037;-56
2023/06/12 18:46:57;;;;;;;40.38;6.90;;;;;;;;;;5019144;28;20034;-58
2023/06/12 18:49:23;;;;;;;55.03;8.33;;;;;;;;;;5015070;28;20017;-56
2023/06/12 18:51:48;;;;;;;31.63;6.30;;;;;;;;;;5014469;28;20279;-57
2023/06/12 18:54:13;;;;;;;32.37;6.03;;;;;;;;;;5014480;28;20825;-52
2023/06/12 18:56:38;;;;;;;34.60;6.27;;;;;;;;;;5014300;28;20025;-57
2023/06/12 18:59:05;;;;;;;27.17;5.47;;;;;;;;;;5015624;28;20021;-57
2023/06/12 19:01:30;;;;;;;56.92;8.45;;;;;;;;;;5012619;28;20372;-57
2023/06/12 19:03:56;;;;;;;38.25;6.75;;;;;;;;;;5015960;28;20033;-55
2023/06/12 19:06:22;;;;;;;63.35;9.48;;;;;;;;;;5012256;28;20532;-54
2023/06/12 19:08:47;;;;;;;31.80;6.07;;;;;;;;;;5016906;28;20491;-56
2023/06/12 19:11:13;;;;;;;33.65;6.32;;;;;;;;;;5014981;28;20450;-57
2023/06/12 19:13:38;;;;;;;36.75;6.68;;;;;;;;;;5013766;28;20028;-56
2023/06/12 19:16:03;;;;;;;44.88;7.38;;;;;;;;;;5013956;28;20109;-56
2023/06/12 19:18:29;;;;;;;55.63;8.68;;;;;;;;;;5015023;28;20060;-57
2023/06/12 19:20:56;;;;;;;45.22;7.40;;;;;;;;;;5012667;28;20391;-58
2023/06/12 19:23:21;;;;;;;52.97;7.97;;;;;;;;;;5011847;28;20083;-57
2023/06/12 19:25:46;;;;;;;37.95;6.80;;;;;;;;;;5014164;28;20025;-54
2023/06/12 19:28:12;;;;;;;35.07;6.43;;;;;;;;;;5014801;28;20113;-53
2023/06/12 19:30:38;;;;;;;32.60;6.38;;;;;;;;;;5014211;28;20319;-54
2023/06/12 19:33:03;;;;;;;36.85;6.43;;;;;;;;;;5014668;28;20029;-54
2023/06/12 19:35:28;;;;;;;63.90;9.10;;;;;;;;;;5011341;28;20235;-55
2023/06/12 19:37:53;;;;;;;32.78;6.50;;;;;;;;;;5012912;28;20367;-58
2023/06/12 19:40:19;;;;;;;42.23;7.37;;;;;;;;;;5013012;28;20067;-54
2023/06/12 19:42:44;;;;;;;52.13;7.88;;;;;;;;;;5013121;28;20303;-55
2023/06/12 19:45:10;;;;;;;43.33;6.93;;;;;;;;;;5013405;28;20033;-54
2023/06/12 19:47:36;;;;;;;60.47;8.70;;;;;;;;;;5011726;28;20785;-57
2023/06/12 19:50:02;;;;;;;39.65;7.25;;;;;;;;;;5012109;28;20033;-54
2023/06/12 19:52:27;;;;;;;66.70;9.40;;;;;;;;;;5011376;28;20037;-54
2023/06/12 19:54:53;;;;;;;44.58;7.00;;;;;;;;;;5013343;28;20041;-55
2023/06/12 19:57:18;;;;;;;40.33;7.17;;;;;;;;;;5010902;28;20072;-56
2023/06/12 19:59:43;;;;;;;46.47;7.27;;;;;;;;;;5014751;28;20744;-58
2023/06/12 20:02:09;;;;;;;40.65;7.35;;;;;;;;;;5014477;28;20827;-56
2023/06/12 20:04:35;;;;;;;79.68;10.48;;;;;;;;;;5011972;28;20475;-57
2023/06/12 20:07:02;;;;;;;42.88;7.28;;;;;;;;;;5011781;28;20454;-56
2023/06/12 20:09:28;;;;;;;72.00;9.65;;;;;;;;;;5011107;28;20088;-56
2023/06/12 20:11:53;;;;;;;46.50;7.88;;;;;;;;;;5013672;28;20155;-56
2023/06/12 20:14:18;;;;;;;49.97;7.57;;;;;;;;;;5013097;28;20477;-56
2023/06/12 20:16:44;;;;;;;53.20;8.20;;;;;;;;;;5012178;28;20272;-59
2023/06/12 20:19:09;;;;;;;43.17;7.25;;;;;;;;;;5013663;28;20268;-58
2023/06/12 20:21:38;;;;;;;72.13;10.17;;;;;;;;;;5010900;28;20029;-58
2023/06/12 20:24:03;;;;;;;42.78;7.50;;;;;;;;;;5012334;28;20811;-59
2023/06/12 20:26:32;;;;;;;72.53;10.05;;;;;;;;;;5010187;28;20073;-57
2023/06/12 20:28:58;;;;;;;52.67;7.65;;;;;;;;;;5013323;28;20017;-59
2023/06/12 20:31:23;;;;;;;66.53;9.35;;;;;;;;;;5010025;28;20331;-59
2023/06/12 20:33:48;;;;;;;43.75;7.57;;;;;;;;;;5010015;28;20025;-59
2023/06/12 20:36:14;;;;;;;42.37;7.17;;;;;;;;;;5011507;28;20532;-59
2023/06/12 20:38:39;;;;;;;47.33;7.50;;;;;;;;;;5011972;28;20296;-58
2023/06/12 20:41:04;;;;;;;39.65;7.10;;;;;;;;;;5013071;28;20775;-59
2023/06/12 20:43:30;;;;;;;73.80;10.10;;;;;;;;;;5012141;28;20045;-60
2023/06/12 20:45:55;;;;;;;65.73;9.07;;;;;;;;;;5013001;28;20052;-59
2023/06/12 20:48:20;;;;;;;47.35;8.13;;;;;;;;;;5013254;28;20264;-56
2023/06/12 20:50:46;;;;;;;51.45;8.05;;;;;;;;;;5012925;28;20525;-59
2023/06/12 20:53:12;;;;;;;53.30;8.52;;;;;;;;;;5013195;28;20309;-57
2023/06/12 20:55:37;;;;;;;64.50;9.73;;;;;;;;;;5011109;28;20060;-59
2023/06/12 20:58:02;;;;;;;45.45;7.40;;;;;;;;;;5010295;28;20040;-59
2023/06/12 21:00:27;;;;;;;84.45;11.25;;;;;;;;;;5010609;28;20673;-59
2023/06/12 21:02:53;;;;;;;55.35;8.25;;;;;;;;;;5012883;28;20422;-58
2023/06/12 21:05:18;;;;;;;43.30;7.50;;;;;;;;;;5009848;28;20116;-59
2023/06/12 21:07:43;;;;;;;44.83;7.60;;;;;;;;;;5009721;28;20339;-58
2023/06/12 21:10:09;;;;;;;48.53;8.13;;;;;;;;;;5011343;28;20268;-58
2023/06/12 21:12:34;;;;;;;70.68;10.63;;;;;;;;;;5012467;28;20025;-59
2023/06/12 21:14:59;;;;;;;49.58;8.02;;;;;;;;;;5012831;28;20546;-57
2023/06/12 21:17:25;;;;;;;64.85;9.20;;;;;;;;;;5010655;28;20559;-56
2023/06/12 21:19:50;;;;;;;47.05;7.72;;;;;;;;;;5014093;28;20029;-58
2023/06/12 21:22:17;;;;;;;55.37;8.03;;;;;;;;;;5012858;28;20048;-58
2023/06/12 21:24:43;;;;;;;45.58;7.35;;;;;;;;;;5012571;28;20264;-56
2023/06/12 21:27:08;;;;;;;39.95;7.07;;;;;;;;;;5012951;28;20080;-58
2023/06/12 21:29:33;;;;;;;86.05;11.35;;;;;;;;;;5012127;28;20181;-58
2023/06/12 21:31:58;;;;;;;43.42;7.30;;;;;;;;;;5012820;28;20041;-57
2023/06/12 21:34:24;;;;;;;37.58;7.43;;;;;;;;;;5010825;28;20408;-56
2023/06/12 21:36:49;;;;;;;50.03;8.57;;;;;;;;;;5012336;28;20034;-57
2023/06/12 21:39:14;;;;;;;43.70;7.50;;;;;;;;;;5013869;28;20030;-57
2023/06/12 21:41:41;;;;;;;80.53;11.43;;;;;;;;;;5011769;28;20452;-57
2023/06/12 21:44:06;;;;;;;51.90;8.55;;;;;;;;;;5013600;28;20271;-57
2023/06/12 21:46:31;;;;;;;80.10;11.20;;;;;;;;;;5011126;28;20038;-59
2023/06/12 21:48:56;;;;;;;51.85;8.95;;;;;;;;;;5013386;28;20268;-57
2023/06/12 21:51:22;;;;;;;58.00;8.57;;;;;;;;;;5013673;28;20044;-58
2023/06/12 21:53:47;;;;;;;51.03;8.25;;;;;;;;;;5010651;28;20049;-56
2023/06/12 21:56:13;;;;;;;49.92;7.93;;;;;;;;;;5012775;28;20132;-56
2023/06/12 21:58:38;;;;;;;85.78;11.13;;;;;;;;;;5010033;28;20057;-58
2023/06/12 22:01:03;;;;;;;50.30;8.03;;;;;;;;;;5011527;28;20065;-57
2023/06/12 22:03:28;;;;;;;65.85;9.48;;;;;;;;;;5010276;28;20695;-58
2023/06/12 22:05:54;;;;;;;65.27;9.60;;;;;;;;;;5011901;28;20083;-57
2023/06/12 22:08:20;;;;;;;52.25;8.18;;;;;;;;;;5011958;28;20288;-58
2023/06/12 22:10:45;;;;;;;33.75;6.88;;;;;;;;;;5010529;28;20494;-56
2023/06/12 22:13:10;;;;;;;47.05;7.65;;;;;;;;;;5011837;28;20033;-58
2023/06/12 22:15:36;;;;;;;88.93;11.23;;;;;;;;;;5009386;28;20111;-57
2023/06/12 22:18:03;;;;;;;54.38;7.75;;;;;;;;;;5009715;28;20025;-56
2023/06/12 22:20:28;;;;;;;66.57;9.55;;;;;;;;;;5009791;28;20057;-58
2023/06/12 22:22:54;;;;;;;73.22;9.85;;;;;;;;;;5015038;28;20120;-57
2023/06/12 22:25:21;;;;;;;51.00;8.02;;;;;;;;;;5015186;28;20021;-59
2023/06/12 22:27:46;;;;;;;61.85;9.02;;;;;;;;;;5011418;28;20026;-59
2023/06/12 22:30:11;;;;;;;49.30;7.80;;;;;;;;;;5015584;28;20044;-59
2023/06/12 22:32:36;;;;;;;84.93;11.70;;;;;;;;;;5011907;28;20087;-58
2023/06/12 22:35:02;;;;;;;68.60;9.43;;;;;;;;;;5011192;28;20025;-58
2023/06/12 22:37:27;;;;;;;71.10;9.68;;;;;;;;;;5008070;28;20359;-58
2023/06/12 22:39:52;;;;;;;62.43;8.93;;;;;;;;;;5012121;28;20021;-59
2023/06/12 22:42:18;;;;;;;51.50;8.43;;;;;;;;;;5010520;28;20276;-60
2023/06/12 22:44:43;;;;;;;67.70;9.43;;;;;;;;;;5009893;28;20355;-58
2023/06/12 22:47:10;;;;;;;47.07;7.53;;;;;;;;;;5010773;28;20041;-57
2023/06/12 22:49:36;;;;;;;83.75;11.20;;;;;;;;;;5008474;28;20315;-58
2023/06/12 22:52:03;;;;;;;47.08;7.78;;;;;;;;;;5012624;28;20112;-58
2023/06/12 22:54:28;;;;;;;42.55;7.43;;;;;;;;;;5009975;28;20031;-58
2023/06/12 22:56:54;;;;;;;54.97;8.27;;;;;;;;;;5010167;28;20025;-57
2023/06/12 22:59:19;;;;;;;41.30;7.30;;;;;;;;;;5011004;28;20272;-57
2023/06/12 23:01:44;;;;;;;73.80;10.80;;;;;;;;;;5010389;28;20986;-57
2023/06/12 23:04:09;;;;;;;44.43;7.57;;;;;;;;;;5012266;28;20017;-56
2023/06/12 23:06:35;;;;;;;78.97;10.93;;;;;;;;;;5009378;28;20130;-58
2023/06/12 23:09:02;;;;;;;46.85;7.80;;;;;;;;;;5010631;28;20063;-55
2023/06/12 23:11:27;;;;;;;52.85;8.23;;;;;;;;;;5011084;28;20046;-56
2023/06/12 23:13:54;;;;;;;42.65;7.50;;;;;;;;;;5009523;28;20029;-56
2023/06/12 23:16:23;;;;;;;42.15;7.13;;;;;;;;;;5010521;28;20045;-56
2023/06/12 23:18:53;;;;;;;38.58;7.10;;;;;;;;;;5008586;28;20830;-56
2023/06/12 23:21:19;;;;;;;47.30;7.68;;;;;;;;;;5010930;28;20029;-55
2023/06/12 23:23:46;;;;;;;67.93;9.27;;;;;;;;;;5009890;28;20083;-56
2023/06/12 23:26:15;;;;;;;38.50;7.18;;;;;;;;;;5009329;28;20523;-56
2023/06/12 23:28:40;;;;;;;70.40;9.63;;;;;;;;;;5008331;28;20045;-56
2023/06/12 23:31:05;;;;;;;56.65;8.70;;;;;;;;;;5010977;28;20422;-56
2023/06/12 23:33:31;;;;;;;53.42;8.40;;;;;;;;;;5008776;28;20021;-56
